aviador You're here:

KLQK Decoded Metar

in
Report Time2017-04-25 08:15:00
UTC Time2017-04-25 08:25:47
Flight Rules vfr VFR
Wind290° at 03 kt
W.Decomp.*RWY 23: 1.5 kt HW 2.6 kt RCW
W.Rank290° ranks 19
Current wind is below 290° avg. (6.2)
Visibility9999 m
Phenomena:N/A
Clouds:Broken 031 Hf
Expected CloudBase > 400 ft AGL from Temp-Dew spread
Ceiling3,100 ft
Temp13°C
Dew Point12°C (94% RH)
AAT12.6°C
QNH1005 hPa
Raw Report
METAR KLQK 250815Z AUTO 29003KT 10SM BKN031 13/12 A2969 RMK AO2 T01260123=

Extra information for KLQK:More info

Social comments